createdAt,value
2022-10-11T00:00:23.425Z,101972.13
2022-10-11T00:02:55.326Z,101980.13
2022-10-11T00:05:39.314Z,101977.91
2022-10-11T00:08:22.424Z,101992.78
2022-10-11T00:11:07.202Z,101995.28
2022-10-11T00:13:52.828Z,102001.16
2022-10-11T00:16:35.890Z,102005.22
2022-10-11T00:19:18.905Z,102004.50
2022-10-11T00:22:02.114Z,102007.56
2022-10-11T00:24:44.938Z,102012.97
2022-10-11T00:27:29.894Z,102018.69
2022-10-11T00:30:13.010Z,102017.03
2022-10-11T00:32:55.888Z,102017.31
2022-10-11T00:35:41.600Z,102023.72
2022-10-11T00:38:24.741Z,102022.06
2022-10-11T00:41:07.986Z,102026.44
2022-10-11T00:44:13.806Z,102037.97
2022-10-11T00:47:06.379Z,102031.00
2022-10-11T00:49:59.625Z,102036.59
2022-10-11T00:52:46.293Z,102041.31
2022-10-11T00:55:33.000Z,102052.47
2022-10-11T00:58:17.933Z,102056.19
2022-10-11T01:01:03.733Z,102047.38
2022-10-11T01:03:46.836Z,102046.50
2022-10-11T01:06:31.164Z,102046.06
2022-10-11T01:09:16.009Z,102042.16
2022-10-11T01:12:00.078Z,102050.28
2022-10-11T01:15:07.706Z,102042.16
2022-10-11T01:18:08.033Z,102047.59
2022-10-11T01:21:11.839Z,102035.06
2022-10-11T01:24:08.774Z,102043.34
2022-10-11T01:27:48.690Z,102053.63
2022-10-11T01:30:34.489Z,102049.41
2022-10-11T01:33:38.480Z,102060.22
2022-10-11T01:36:33.918Z,102060.53
2022-10-11T01:39:20.866Z,102061.72
2022-10-11T01:42:06.595Z,102063.88
2022-10-11T01:44:49.967Z,102062.19
2022-10-11T01:47:32.164Z,102065.19
2022-10-11T01:50:36.649Z,102068.22
2022-10-11T01:53:35.844Z,102074.34
2022-10-11T01:56:48.574Z,102079.44
2022-10-11T01:59:51.347Z,102068.59
2022-10-11T02:03:04.886Z,102079.75
2022-10-11T02:05:56.536Z,102071.78
2022-10-11T02:09:08.283Z,102072.94
2022-10-11T02:11:57.172Z,102075.81
2022-10-11T02:14:43.593Z,102082.38
2022-10-11T02:17:33.553Z,102085.78
2022-10-11T02:20:20.933Z,102088.16
2022-10-11T02:23:09.326Z,102090.72
2022-10-11T02:25:54.977Z,102082.59
2022-10-11T02:28:41.978Z,102090.88
2022-10-11T02:31:26.640Z,102093.44
2022-10-11T02:34:15.431Z,102090.56
2022-10-11T02:37:06.443Z,102095.66
2022-10-11T02:39:56.598Z,102090.56
2022-10-11T02:42:46.425Z,102100.38
2022-10-11T02:45:36.390Z,102102.78
2022-10-11T02:48:21.679Z,102099.75
2022-10-11T02:51:06.156Z,102102.78
2022-10-11T02:53:50.663Z,102107.66
2022-10-11T02:56:33.066Z,102106.97
2022-10-11T02:59:18.314Z,102110.00
2022-10-11T03:02:00.762Z,102105.72
2022-10-11T03:04:43.741Z,102109.63
2022-10-11T03:07:26.716Z,102118.88
2022-10-11T03:10:12.474Z,102128.47
2022-10-11T03:12:58.010Z,102132.34
2022-10-11T03:15:42.518Z,102136.38
2022-10-11T03:18:25.156Z,102141.78
2022-10-11T03:21:10.193Z,102142.78
2022-10-11T03:23:52.772Z,102149.03
2022-10-11T03:26:35.831Z,102148.19
2022-10-11T03:29:20.853Z,102154.28
2022-10-11T03:32:05.567Z,102145.47
2022-10-11T03:34:48.125Z,102156.31
2022-10-11T03:37:33.061Z,102160.16
2022-10-11T03:40:17.634Z,102181.66
2022-10-11T03:43:00.260Z,102180.47
2022-10-11T03:45:43.368Z,102181.34
2022-10-11T03:48:28.251Z,102190.00
2022-10-11T03:51:13.192Z,102191.53
2022-10-11T03:53:57.760Z,102191.53
2022-10-11T03:56:40.085Z,102196.25
2022-10-11T03:59:25.271Z,102189.63
2022-10-11T04:02:10.126Z,102194.19
2022-10-11T04:04:55.891Z,102191.75
2022-10-11T04:07:41.213Z,102193.06
2022-10-11T04:10:24.841Z,102195.09
2022-10-11T04:13:07.862Z,102198.81
2022-10-11T04:15:52.727Z,102204.50
2022-10-11T04:18:37.433Z,102208.22
2022-10-11T04:21:19.987Z,102203.09
2022-10-11T04:24:05.159Z,102213.25
2022-10-11T04:26:47.554Z,102214.06
2022-10-11T04:29:32.983Z,102217.63
2022-10-11T04:32:17.347Z,102223.03
2022-10-11T04:34:59.927Z,102223.03
2022-10-11T04:37:42.873Z,102221.03
2022-10-11T04:40:25.837Z,102221.56
2022-10-11T04:43:10.911Z,102219.59
2022-10-11T04:45:55.686Z,102223.81
2022-10-11T04:48:40.239Z,102229.09
2022-10-11T04:51:25.138Z,102241.91
2022-10-11T04:54:07.307Z,102241.22
2022-10-11T04:56:50.443Z,102246.09
2022-10-11T04:59:35.369Z,102242.13
2022-10-11T05:02:20.217Z,102254.09
2022-10-11T05:05:04.821Z,102256.38
2022-10-11T05:07:47.201Z,102254.69
2022-10-11T05:10:33.109Z,102258.09
2022-10-11T05:13:16.360Z,102273.47
2022-10-11T05:15:59.460Z,102263.50
2022-10-11T05:18:44.573Z,102263.38
2022-10-11T05:21:28.877Z,102265.34
2022-10-11T05:24:11.616Z,102266.94
2022-10-11T05:27:00.893Z,102267.63
2022-10-11T05:29:45.765Z,102278.56
2022-10-11T05:32:30.761Z,102286.00
2022-10-11T05:35:15.479Z,102283.44
2022-10-11T05:37:57.907Z,102288.84
2022-10-11T05:40:40.791Z,102288.84
2022-10-11T05:43:24.027Z,102296.28
2022-10-11T05:46:09.175Z,102292.00
2022-10-11T05:48:53.063Z,102304.66
2022-10-11T05:51:38.086Z,102303.66
2022-10-11T05:54:22.753Z,102310.78
2022-10-11T05:57:07.352Z,102316.19
2022-10-11T05:59:50.168Z,102305.38
2022-10-11T06:02:35.252Z,102316.75
2022-10-11T06:05:18.036Z,102309.34
2022-10-11T06:08:00.842Z,102320.72
2022-10-11T06:10:44.778Z,102319.53
2022-10-11T06:13:28.398Z,102320.13
2022-10-11T06:16:27.705Z,102332.75
2022-10-11T06:19:32.766Z,102333.88
2022-10-11T06:22:46.503Z,102343.78
2022-10-11T06:25:42.698Z,102343.88
2022-10-11T06:28:58.842Z,102343.28
2022-10-11T06:31:59.939Z,102351.09
2022-10-11T06:35:03.428Z,102351.94
2022-10-11T06:38:03.199Z,102353.50
2022-10-11T06:41:18.205Z,102360.59
2022-10-11T06:44:18.175Z,102356.50
2022-10-11T06:47:16.238Z,102354.09
2022-10-11T06:50:40.625Z,102357.50
2022-10-11T06:53:40.801Z,102365.47
2022-10-11T06:56:39.206Z,102366.31
2022-10-11T06:59:37.872Z,102364.34
2022-10-11T07:02:41.267Z,102376.84
2022-10-11T07:05:40.620Z,102376.84
2022-10-11T07:08:42.910Z,102382.13
2022-10-11T07:11:39.854Z,102380.25
2022-10-11T07:14:45.230Z,102387.22
2022-10-11T07:17:42.724Z,102395.19
2022-10-11T07:20:43.705Z,102396.59
2022-10-11T07:23:52.735Z,102403.44
2022-10-11T07:26:52.306Z,102390.56
2022-10-11T07:29:52.018Z,102404.13
2022-10-11T07:32:52.558Z,102399.69
2022-10-11T07:35:50.207Z,102400.09
2022-10-11T07:38:54.791Z,102403.53
2022-10-11T07:41:58.722Z,102403.91
2022-10-11T07:44:58.352Z,102409.03
2022-10-11T07:47:58.326Z,102410.06
2022-10-11T07:51:06.132Z,102404.31
2022-10-11T07:54:20.002Z,102410.56
2022-10-11T07:57:21.026Z,102420.72
2022-10-11T08:00:20.678Z,102416.94
2022-10-11T08:03:21.265Z,102429.00
2022-10-11T08:06:21.567Z,102427.03
2022-10-11T08:09:24.169Z,102439.06
2022-10-11T08:12:24.594Z,102434.22
2022-10-11T08:15:26.839Z,102435.88
2022-10-11T08:18:29.439Z,102434.88
2022-10-11T08:21:31.055Z,102440.16
2022-10-11T08:24:43.250Z,102437.97
2022-10-11T08:27:41.951Z,102441.94
2022-10-11T08:30:40.954Z,102441.31
2022-10-11T08:33:43.488Z,102449.31
2022-10-11T08:36:46.139Z,102447.50
2022-10-11T08:39:45.090Z,102439.41
2022-10-11T08:42:48.365Z,102445.94
2022-10-11T08:45:50.904Z,102451.59
2022-10-11T08:48:32.727Z,102453.59
2022-10-11T08:51:12.519Z,102445.81
2022-10-11T08:54:01.380Z,102452.63
2022-10-11T08:56:39.932Z,102454.00
2022-10-11T08:59:11.890Z,102454.38
2022-10-11T09:01:47.676Z,102452.91
2022-10-11T09:04:19.810Z,102459.59
2022-10-11T09:07:19.082Z,102449.78
2022-10-11T09:10:11.462Z,102451.16
2022-10-11T09:13:04.406Z,102458.81
2022-10-11T09:15:49.708Z,102462.22
2022-10-11T09:18:27.524Z,102452.56
2022-10-11T09:21:12.040Z,102447.50
2022-10-11T09:24:02.158Z,102453.16
2022-10-11T09:26:56.125Z,102456.75
2022-10-11T09:29:30.519Z,102460.53
2022-10-11T09:32:02.563Z,102465.31
2022-10-11T09:34:36.266Z,102459.38
2022-10-11T09:37:21.650Z,102463.63
2022-10-11T09:40:03.858Z,102460.59
2022-10-11T09:42:35.850Z,102460.59
2022-10-11T09:45:19.149Z,102461.25
2022-10-11T09:47:52.653Z,102457.19
2022-10-11T09:50:26.233Z,102469.13
2022-10-11T09:53:00.522Z,102460.31
2022-10-11T09:55:40.706Z,102470.84
2022-10-11T09:58:38.690Z,102473.06
2022-10-11T10:01:13.886Z,102467.97
2022-10-11T10:03:46.987Z,102461.03
2022-10-11T10:06:27.528Z,102471.75
2022-10-11T10:09:20.793Z,102472.31
2022-10-11T10:11:54.264Z,102473.66
2022-10-11T10:14:29.128Z,102473.34
2022-10-11T10:17:04.082Z,102474.72
2022-10-11T10:19:44.926Z,102480.66
2022-10-11T10:22:20.855Z,102475.31
2022-10-11T10:24:54.075Z,102475.59
2022-10-11T10:27:30.256Z,102474.59
2022-10-11T10:30:07.549Z,102474.72
2022-10-11T10:33:01.229Z,102473.38
2022-10-11T10:35:35.158Z,102482.09
2022-10-11T10:38:37.388Z,102487.00
2022-10-11T10:41:14.071Z,102483.78
2022-10-11T10:43:53.566Z,102480.66
2022-10-11T10:46:52.526Z,102485.03
2022-10-11T10:49:54.123Z,102483.94
2022-10-11T10:52:43.666Z,102486.00
2022-10-11T10:55:34.688Z,102484.72
2022-10-11T10:58:34.852Z,102476.63
2022-10-11T11:01:29.021Z,102478.09
2022-10-11T11:04:24.905Z,102479.56
2022-10-11T11:06:59.820Z,102477.81
2022-10-11T11:09:45.939Z,102476.88
2022-10-11T11:12:23.690Z,102482.34
2022-10-11T11:15:01.349Z,102484.91
2022-10-11T11:17:44.890Z,102482.63
2022-10-11T11:20:24.740Z,102483.78
2022-10-11T11:23:09.182Z,102489.16
2022-10-11T11:26:00.306Z,102482.06
2022-10-11T11:28:56.858Z,102488.84
2022-10-11T11:31:40.683Z,102492.44
2022-10-11T11:34:28.023Z,102492.88
2022-10-11T11:37:10.563Z,102495.63
2022-10-11T11:39:46.333Z,102494.59
2022-10-11T11:42:22.331Z,102492.50
2022-10-11T11:44:54.520Z,102497.22
2022-10-11T11:47:54.087Z,102492.72
2022-10-11T11:50:28.559Z,102492.50
2022-10-11T11:53:07.570Z,102493.75
2022-10-11T11:55:56.079Z,102497.22
2022-10-11T11:58:43.226Z,102497.50
2022-10-11T12:01:31.107Z,102490.91
2022-10-11T12:04:07.449Z,102482.69
2022-10-11T12:06:47.893Z,102486.47
2022-10-11T12:09:31.232Z,102491.94
2022-10-11T12:12:07.197Z,102495.03
2022-10-11T12:14:40.863Z,102496.44
2022-10-11T12:17:15.743Z,102491.00
2022-10-11T12:20:25.138Z,102493.03
2022-10-11T12:23:21.992Z,102489.28
2022-10-11T12:26:18.973Z,102488.91
2022-10-11T12:29:18.730Z,102488.91
2022-10-11T12:32:00.216Z,102489.56
2022-10-11T12:34:43.518Z,102486.47
2022-10-11T12:37:18.759Z,102486.09
2022-10-11T12:39:52.380Z,102487.81
2022-10-11T12:42:34.867Z,102478.19
2022-10-11T12:45:13.181Z,102486.63
2022-10-11T12:48:17.107Z,102476.75
2022-10-11T12:51:13.677Z,102479.38
2022-10-11T12:54:36.144Z,102475.63
2022-10-11T12:57:12.095Z,102478.75
2022-10-11T12:59:45.436Z,102484.56
2022-10-11T13:02:28.820Z,102478.50
2022-10-11T13:05:27.421Z,102479.19
2022-10-11T13:08:03.126Z,102481.53
2022-10-11T13:10:43.527Z,102478.75
2022-10-11T13:13:28.939Z,102478.81
2022-10-11T13:16:06.499Z,102481.38
2022-10-11T13:18:42.060Z,102482.78
2022-10-11T13:21:26.960Z,102466.09
2022-10-11T13:24:04.448Z,102471.91
2022-10-11T13:26:36.800Z,102471.28
2022-10-11T13:29:16.941Z,102474.38
2022-10-11T13:31:49.442Z,102470.59
2022-10-11T13:34:23.485Z,102461.38
2022-10-11T13:36:57.678Z,102464.09
2022-10-11T13:39:37.142Z,102465.13
2022-10-11T13:42:12.173Z,102464.19
2022-10-11T13:44:44.908Z,102466.13
2022-10-11T13:47:19.132Z,102468.09
2022-10-11T13:50:14.897Z,102462.50
2022-10-11T13:53:00.596Z,102460.34
2022-10-11T13:55:35.183Z,102462.38
2022-10-11T13:58:17.782Z,102465.66
2022-10-11T14:01:02.061Z,102469.25
2022-10-11T14:03:56.786Z,102468.19
2022-10-11T14:06:58.087Z,102466.13
2022-10-11T14:09:32.317Z,102461.88
2022-10-11T14:12:26.031Z,102464.13
2022-10-11T14:15:02.053Z,102468.09
2022-10-11T14:17:40.662Z,102457.91
2022-10-11T14:20:12.926Z,102461.66
2022-10-11T14:22:45.157Z,102456.38
2022-10-11T14:25:19.949Z,102456.38
2022-10-11T14:27:52.248Z,102463.53
2022-10-11T14:30:27.378Z,102460.31
2022-10-11T14:33:01.198Z,102468.69
2022-10-11T14:35:33.058Z,102470.09
2022-10-11T14:38:04.906Z,102463.28
2022-10-11T14:40:36.698Z,102470.63
2022-10-11T14:43:08.596Z,102465.34
2022-10-11T14:45:40.526Z,102472.88
2022-10-11T14:48:12.420Z,102473.03
2022-10-11T14:50:50.385Z,102481.22
2022-10-11T14:53:22.290Z,102479.34
2022-10-11T14:55:55.342Z,102475.59
2022-10-11T14:58:27.503Z,102471.00
2022-10-11T15:00:59.337Z,102469.47
2022-10-11T15:03:31.456Z,102472.19
2022-10-11T15:06:03.648Z,102472.19
2022-10-11T15:08:35.725Z,102476.78
2022-10-11T15:11:07.643Z,102476.78
2022-10-11T15:13:39.531Z,102479.03
2022-10-11T15:16:13.446Z,102477.16
2022-10-11T15:18:50.860Z,102475.47
2022-10-11T15:21:25.262Z,102473.59
2022-10-11T15:23:57.063Z,102476.31
2022-10-11T15:26:29.526Z,102473.75
2022-10-11T15:29:01.784Z,102473.75
2022-10-11T15:31:33.725Z,102470.00
2022-10-11T15:34:05.632Z,102476.31
2022-10-11T15:36:37.664Z,102479.72
2022-10-11T15:39:24.453Z,102481.41
2022-10-11T15:41:57.329Z,102486.00
2022-10-11T15:44:29.403Z,102478.88
2022-10-11T15:47:01.267Z,102475.28
2022-10-11T15:49:33.389Z,102482.63
2022-10-11T15:52:05.528Z,102487.91
2022-10-11T15:54:37.687Z,102490.66
2022-10-11T15:57:09.549Z,102487.91
2022-10-11T15:59:41.370Z,102483.47
2022-10-11T16:02:14.990Z,102486.22
2022-10-11T16:04:46.849Z,102486.38
2022-10-11T16:07:18.912Z,102485.53
2022-10-11T16:09:50.785Z,102491.16
2022-10-11T16:12:22.548Z,102485.91
2022-10-11T16:14:54.456Z,102497.34
2022-10-11T16:17:26.326Z,102490.72
2022-10-11T16:19:58.170Z,102495.50
2022-10-11T16:22:30.238Z,102490.22
2022-10-11T16:25:03.903Z,102494.84
2022-10-11T16:27:36.173Z,102494.84
2022-10-11T16:30:11.849Z,102497.91
2022-10-11T16:32:44.868Z,102492.13
2022-10-11T16:35:17.151Z,102497.28
2022-10-11T16:37:49.285Z,102497.66
2022-10-11T16:40:22.068Z,102501.75
2022-10-11T16:42:53.921Z,102498.50
2022-10-11T16:45:25.923Z,102502.47
2022-10-11T16:47:58.542Z,102503.47
2022-10-11T16:50:33.314Z,102502.63
2022-10-11T16:53:07.587Z,102501.78
2022-10-11T16:55:39.741Z,102511.81
2022-10-11T16:58:11.617Z,102501.28
2022-10-11T17:00:43.740Z,102499.94
2022-10-11T17:03:15.705Z,102512.03
2022-10-11T17:05:47.514Z,102504.22
2022-10-11T17:08:19.540Z,102503.53
2022-10-11T17:10:57.835Z,102500.16
2022-10-11T17:13:30.172Z,102500.16
2022-10-11T17:16:02.067Z,102501.16
2022-10-11T17:18:34.048Z,102498.78
2022-10-11T17:21:08.171Z,102490.91
2022-10-11T17:23:40.382Z,102496.53
2022-10-11T17:26:17.130Z,102492.31
2022-10-11T17:28:49.386Z,102496.41
2022-10-11T17:31:21.418Z,102491.50
2022-10-11T17:33:54.776Z,102497.47
2022-10-11T17:36:31.989Z,102500.50
2022-10-11T17:39:07.256Z,102497.13
2022-10-11T17:41:39.514Z,102494.94
2022-10-11T17:44:12.627Z,102493.38
2022-10-11T17:46:44.655Z,102499.19
2022-10-11T17:49:17.617Z,102496.47
2022-10-11T17:51:49.505Z,102497.31
2022-10-11T17:54:21.630Z,102499.19
2022-10-11T17:56:54.533Z,102501.56
2022-10-11T17:59:30.637Z,102498.84
2022-10-11T18:02:02.754Z,102497.97
2022-10-11T18:04:35.284Z,102499.69
2022-10-11T18:07:07.586Z,102498.84
2022-10-11T18:09:41.050Z,102496.78
2022-10-11T18:12:13.149Z,102489.28
2022-10-11T18:14:45.042Z,102494.72
2022-10-11T18:17:17.542Z,102492.00
2022-10-11T18:19:49.307Z,102496.44
2022-10-11T18:22:21.364Z,102491.00
2022-10-11T18:24:53.417Z,102491.34
2022-10-11T18:27:25.406Z,102497.66
2022-10-11T18:29:57.551Z,102489.63
2022-10-11T18:32:29.494Z,102489.63
2022-10-11T18:35:01.336Z,102496.47
2022-10-11T18:37:33.292Z,102495.78
2022-10-11T18:40:05.690Z,102501.56
2022-10-11T18:42:37.582Z,102500.19
2022-10-11T18:45:10.421Z,102493.41
2022-10-11T18:47:42.295Z,102505.50
2022-10-11T18:50:14.353Z,102494.28
2022-10-11T18:52:48.445Z,102499.22
2022-10-11T18:55:20.615Z,102495.13
2022-10-11T18:57:52.490Z,102500.06
2022-10-11T19:00:40.039Z,102497.84
2022-10-11T19:03:12.874Z,102501.94
2022-10-11T19:05:44.745Z,102501.41
2022-10-11T19:08:16.667Z,102497.16
2022-10-11T19:10:48.568Z,102497.50
2022-10-11T19:13:20.763Z,102497.84
2022-10-11T19:15:53.120Z,102503.44
2022-10-11T19:18:25.619Z,102501.06
2022-10-11T19:21:01.445Z,102506.00
2022-10-11T19:23:39.563Z,102506.31
2022-10-11T19:26:23.886Z,102512.13
2022-10-11T19:29:07.477Z,102508.69
2022-10-11T19:31:44.895Z,102507.03
2022-10-11T19:34:16.855Z,102505.31
2022-10-11T19:36:53.251Z,102505.47
2022-10-11T19:39:25.495Z,102500.19
2022-10-11T19:41:57.442Z,102498.66
2022-10-11T19:44:29.294Z,102496.06
2022-10-11T19:47:05.299Z,102502.88
2022-10-11T19:49:37.415Z,102497.78
2022-10-11T19:52:09.529Z,102499.81
2022-10-11T19:54:41.452Z,102501.84
2022-10-11T19:57:13.261Z,102504.03
2022-10-11T19:59:45.703Z,102502.50
2022-10-11T20:02:17.636Z,102496.72
2022-10-11T20:04:53.332Z,102496.88
2022-10-11T20:07:25.295Z,102493.47
2022-10-11T20:09:57.106Z,102500.09
2022-10-11T20:12:29.461Z,102504.84
2022-10-11T20:15:01.506Z,102514.69
2022-10-11T20:17:53.666Z,102504.16
2022-10-11T20:20:25.665Z,102512.47
2022-10-11T20:22:57.849Z,102504.47
2022-10-11T20:25:29.712Z,102508.25
2022-10-11T20:28:03.102Z,102503.97
2022-10-11T20:30:35.003Z,102494.28
2022-10-11T20:33:07.751Z,102493.75
2022-10-11T20:35:39.775Z,102496.66
2022-10-11T20:38:11.582Z,102503.25
2022-10-11T20:40:43.385Z,102495.25
2022-10-11T20:43:15.540Z,102500.03
2022-10-11T20:46:04.373Z,102503.75
2022-10-11T20:48:37.208Z,102504.75
2022-10-11T20:51:10.626Z,102502.22
2022-10-11T20:53:42.698Z,102499.66
2022-10-11T20:56:16.677Z,102502.53
2022-10-11T20:58:53.216Z,102501.00
2022-10-11T21:01:28.156Z,102507.44
2022-10-11T21:04:01.203Z,102498.59
2022-10-11T21:06:33.591Z,102503.34
2022-10-11T21:09:05.442Z,102498.94
2022-10-11T21:11:37.330Z,102500.94
2022-10-11T21:14:09.204Z,102508.44
2022-10-11T21:16:41.049Z,102504.16
2022-10-11T21:19:15.046Z,102514.16
2022-10-11T21:21:51.164Z,102517.94
2022-10-11T21:24:25.537Z,102510.78
2022-10-11T21:27:00.666Z,102515.34
2022-10-11T21:29:32.833Z,102516.38
2022-10-11T21:32:04.680Z,102520.09
2022-10-11T21:34:36.509Z,102520.94
2022-10-11T21:37:08.456Z,102516.53
2022-10-11T21:39:40.258Z,102529.44
2022-10-11T21:42:12.089Z,102528.72
2022-10-11T21:44:44.528Z,102519.06
2022-10-11T21:47:17.474Z,102524.63
2022-10-11T21:49:49.365Z,102521.22
2022-10-11T21:52:21.360Z,102516.81
2022-10-11T21:54:53.232Z,102522.41
2022-10-11T21:57:25.250Z,102525.28
2022-10-11T21:59:57.042Z,102525.28
2022-10-11T22:02:29.123Z,102522.72
2022-10-11T22:05:01.096Z,102526.28
2022-10-11T22:07:33.137Z,102519.16
2022-10-11T22:10:05.326Z,102524.75
2022-10-11T22:12:37.835Z,102523.03
2022-10-11T22:15:10.161Z,102519.47
2022-10-11T22:17:42.136Z,102517.59
2022-10-11T22:20:14.555Z,102515.03
2022-10-11T22:22:46.459Z,102512.50
2022-10-11T22:25:18.844Z,102523.53
2022-10-11T22:27:51.208Z,102523.66
2022-10-11T22:30:23.094Z,102522.81
2022-10-11T22:32:55.111Z,102525.72
2022-10-11T22:35:26.955Z,102526.88
2022-10-11T22:37:58.809Z,102523.47
2022-10-11T22:40:30.720Z,102528.22
2022-10-11T22:43:02.673Z,102522.06
2022-10-11T22:45:34.657Z,102527.50
2022-10-11T22:48:06.544Z,102527.50
2022-10-11T22:50:38.986Z,102520.41
2022-10-11T22:53:12.777Z,102522.06
2022-10-11T22:55:44.849Z,102522.41
2022-10-11T22:58:17.088Z,102532.41
2022-10-11T23:00:49.108Z,102525.13
2022-10-11T23:03:21.099Z,102527.84
2022-10-11T23:05:56.806Z,102534.13
2022-10-11T23:08:28.589Z,102527.84
2022-10-11T23:11:05.258Z,102531.56
2022-10-11T23:13:37.088Z,102532.75
2022-10-11T23:16:10.970Z,102538.44
2022-10-11T23:18:43.039Z,102533.34
2022-10-11T23:21:14.941Z,102541.63
2022-10-11T23:23:46.789Z,102543.66
2022-10-11T23:26:18.636Z,102541.97
2022-10-11T23:28:54.131Z,102545.66
2022-10-11T23:31:26.372Z,102543.97
2022-10-11T23:33:58.496Z,102541.44
2022-10-11T23:36:30.378Z,102540.56
2022-10-11T23:39:02.523Z,102546.00
2022-10-11T23:41:34.331Z,102544.28
2022-10-11T23:44:06.307Z,102538.84
2022-10-11T23:46:38.142Z,102548.00
2022-10-11T23:49:10.046Z,102550.03
2022-10-11T23:51:41.980Z,102550.03
2022-10-11T23:54:13.776Z,102552.56
2022-10-11T23:56:45.873Z,102552.44
2022-10-11T23:59:19.483Z,102548.72
